createdAt,value
2018-05-14T00:01:57.111Z,30.40
2018-05-14T00:04:25.449Z,30.27
2018-05-14T00:06:53.663Z,28.67
2018-05-14T00:09:21.890Z,29.70
2018-05-14T00:11:51.223Z,28.40
2018-05-14T00:14:19.465Z,27.57
2018-05-14T00:16:47.730Z,24.33
2018-05-14T00:19:16.690Z,26.70
2018-05-14T00:21:45.628Z,22.50
2018-05-14T00:24:15.386Z,20.07
2018-05-14T00:26:43.766Z,19.10
2018-05-14T00:29:12.140Z,18.33
2018-05-14T00:31:40.412Z,17.60
2018-05-14T00:34:08.770Z,16.37
2018-05-14T00:36:36.977Z,15.27
2018-05-14T00:39:05.359Z,15.70
2018-05-14T00:41:33.612Z,13.40
2018-05-14T00:44:02.928Z,14.03
2018-05-14T00:46:31.904Z,12.43
2018-05-14T00:49:00.104Z,14.93
2018-05-14T00:51:28.385Z,13.60
2018-05-14T00:53:56.758Z,12.23
2018-05-14T00:56:24.973Z,11.37
2018-05-14T00:58:53.201Z,10.70
2018-05-14T01:01:21.491Z,10.90
2018-05-14T01:03:49.687Z,14.37
2018-05-14T01:06:18.697Z,10.40
2018-05-14T01:08:47.654Z,11.03
2018-05-14T01:11:15.863Z,14.27
2018-05-14T01:13:44.067Z,9.93
2018-05-14T01:16:12.316Z,11.87
2018-05-14T01:18:41.377Z,12.43
2018-05-14T01:21:09.751Z,12.30
2018-05-14T01:23:38.015Z,13.77
2018-05-14T01:26:09.800Z,10.40
2018-05-14T01:28:49.867Z,12.37
2018-05-14T01:31:23.868Z,8.87
2018-05-14T01:33:56.383Z,8.70
2018-05-14T01:36:25.352Z,8.30
2018-05-14T01:38:53.718Z,8.57
2018-05-14T01:41:22.306Z,9.03
2018-05-14T01:43:50.546Z,8.33
2018-05-14T01:46:18.857Z,10.47
2018-05-14T01:48:47.128Z,7.63
2018-05-14T01:51:15.345Z,7.33
2018-05-14T01:53:43.571Z,7.83
2018-05-14T01:56:11.799Z,6.37
2018-05-14T01:58:40.216Z,6.53
2018-05-14T02:01:09.246Z,6.83
2018-05-14T02:03:37.818Z,10.13
2018-05-14T02:06:06.070Z,6.03
2018-05-14T02:08:35.272Z,10.20
2018-05-14T02:11:04.381Z,7.57
2018-05-14T02:13:32.604Z,5.63
2018-05-14T02:16:00.830Z,8.83
2018-05-14T02:18:29.042Z,5.27
2018-05-14T02:20:57.923Z,10.77
2018-05-14T02:23:26.151Z,6.70
2018-05-14T02:25:55.140Z,9.87
2018-05-14T02:28:23.395Z,6.10
2018-05-14T02:30:51.641Z,6.93
2018-05-14T02:33:19.932Z,6.37
2018-05-14T02:35:48.803Z,7.83
2018-05-14T02:38:17.882Z,7.00
2018-05-14T02:40:47.127Z,6.47
2018-05-14T02:43:15.325Z,8.13
2018-05-14T02:45:44.285Z,7.20
2018-05-14T02:48:12.567Z,13.57
2018-05-14T02:50:40.812Z,8.23
2018-05-14T02:53:09.075Z,11.13
2018-05-14T02:55:38.349Z,10.40
2018-05-14T02:58:07.477Z,12.87
2018-05-14T03:00:36.472Z,12.90
2018-05-14T03:03:05.435Z,8.07
2018-05-14T03:05:33.637Z,13.17
2018-05-14T03:08:02.635Z,11.60
2018-05-14T03:10:32.148Z,16.20
2018-05-14T03:13:00.429Z,14.17
2018-05-14T03:15:28.643Z,14.47
2018-05-14T03:17:57.011Z,13.57
2018-05-14T03:20:25.241Z,14.43
2018-05-14T03:22:53.667Z,12.93
2018-05-14T03:25:22.089Z,13.17
2018-05-14T03:27:50.313Z,12.17
2018-05-14T03:30:18.559Z,12.70
2018-05-14T03:32:47.542Z,14.30
2018-05-14T03:35:15.763Z,15.30
2018-05-14T03:37:44.026Z,14.67
2018-05-14T03:40:13.273Z,19.90
2018-05-14T03:42:41.508Z,17.40
2018-05-14T03:45:09.862Z,15.70
2018-05-14T03:47:39.120Z,18.30
2018-05-14T03:50:07.362Z,18.53
2018-05-14T03:52:35.594Z,15.27
2018-05-14T03:55:04.329Z,13.83
2018-05-14T03:57:32.568Z,19.80
2018-05-14T04:00:12.848Z,18.80
2018-05-14T04:02:53.880Z,16.87
2018-05-14T04:05:22.149Z,20.13
2018-05-14T04:07:50.461Z,16.70
2018-05-14T04:10:18.742Z,15.07
2018-05-14T04:12:46.964Z,15.70
2018-05-14T04:15:16.672Z,23.47
2018-05-14T04:17:44.948Z,17.33
2018-05-14T04:20:13.135Z,22.80
2018-05-14T04:22:41.540Z,23.23
2018-05-14T04:25:09.818Z,20.20
2018-05-14T04:27:38.014Z,21.13
2018-05-14T04:30:06.394Z,18.37
2018-05-14T04:32:34.612Z,19.13
2018-05-14T04:35:03.610Z,18.60
2018-05-14T04:37:31.846Z,20.90
2018-05-14T04:40:03.120Z,20.13
2018-05-14T04:42:32.120Z,21.43
2018-05-14T04:45:01.240Z,21.83
2018-05-14T04:47:29.641Z,24.63
2018-05-14T04:49:57.908Z,25.87
2018-05-14T04:52:27.072Z,24.37
2018-05-14T04:54:55.407Z,27.37
2018-05-14T04:57:23.624Z,30.37
2018-05-14T04:59:52.608Z,27.23
2018-05-14T05:02:21.608Z,27.07
2018-05-14T05:04:50.763Z,30.43
2018-05-14T05:07:19.136Z,28.97
2018-05-14T05:09:47.416Z,33.20
2018-05-14T05:12:18.584Z,27.97
2018-05-14T05:14:47.047Z,35.13
2018-05-14T05:17:16.192Z,30.17
2018-05-14T05:19:44.343Z,30.20
2018-05-14T05:22:12.700Z,34.63
2018-05-14T05:24:40.981Z,34.80
2018-05-14T05:27:09.454Z,42.33
2018-05-14T05:29:37.731Z,39.00
2018-05-14T05:32:05.946Z,39.03
2018-05-14T05:34:35.634Z,38.03
2018-05-14T05:37:03.917Z,38.13
2018-05-14T05:39:32.280Z,40.73
2018-05-14T05:42:00.701Z,43.57
2018-05-14T05:44:28.967Z,44.80
2018-05-14T05:46:57.955Z,40.27
2018-05-14T05:49:26.161Z,46.53
2018-05-14T05:51:54.376Z,51.30
2018-05-14T05:54:22.669Z,55.87
2018-05-14T05:56:52.267Z,52.57
2018-05-14T05:59:20.498Z,54.37
2018-05-14T06:01:48.758Z,58.30
2018-05-14T06:04:17.763Z,60.30
2018-05-14T06:06:46.109Z,68.17
2018-05-14T06:09:14.372Z,64.83
2018-05-14T06:11:42.601Z,68.17
2018-05-14T06:14:10.807Z,74.73
2018-05-14T06:16:39.216Z,74.10
2018-05-14T06:19:08.160Z,74.60
2018-05-14T06:21:37.117Z,74.33
2018-05-14T06:24:05.338Z,79.00
2018-05-14T06:26:34.378Z,76.37
2018-05-14T06:29:02.584Z,77.77
2018-05-14T06:31:30.844Z,76.93
2018-05-14T06:33:59.150Z,74.53
2018-05-14T06:36:27.496Z,74.60
2018-05-14T06:38:55.875Z,77.93
2018-05-14T06:41:24.137Z,84.73
2018-05-14T06:43:52.546Z,76.80
2018-05-14T06:46:20.770Z,81.57
2018-05-14T06:48:49.137Z,73.33
2018-05-14T06:51:18.133Z,80.73
2018-05-14T06:53:47.134Z,68.77
2018-05-14T06:56:16.170Z,74.47
2018-05-14T06:58:44.382Z,73.37
2018-05-14T07:01:13.383Z,67.70
2018-05-14T07:03:41.910Z,61.67
2018-05-14T07:06:10.211Z,64.80
2018-05-14T07:08:38.450Z,65.50
2018-05-14T07:11:06.665Z,61.53
2018-05-14T07:13:34.864Z,64.03
2018-05-14T07:16:03.156Z,63.67
2018-05-14T07:18:31.461Z,65.80
2018-05-14T07:20:59.740Z,62.23
2018-05-14T07:23:27.966Z,66.87
2018-05-14T07:25:56.223Z,64.40
2018-05-14T07:28:24.468Z,73.27
2018-05-14T07:30:53.325Z,77.00
2018-05-14T07:33:21.617Z,67.20
2018-05-14T07:35:50.587Z,62.83
2018-05-14T07:38:18.777Z,63.13
2018-05-14T07:40:47.815Z,65.43
2018-05-14T07:43:16.112Z,55.97
2018-05-14T07:45:44.353Z,60.00
2018-05-14T07:48:12.600Z,62.37
2018-05-14T07:50:41.524Z,56.20
2018-05-14T07:53:10.504Z,54.00
2018-05-14T07:55:39.489Z,57.87
2018-05-14T07:58:08.481Z,50.97
2018-05-14T08:00:36.715Z,49.77
2018-05-14T08:03:05.791Z,54.73
2018-05-14T08:05:34.064Z,50.50
2018-05-14T08:08:03.023Z,46.97
2018-05-14T08:10:31.267Z,47.43
2018-05-14T08:12:59.474Z,41.00
2018-05-14T08:15:27.686Z,41.43
2018-05-14T08:17:56.002Z,40.50
2018-05-14T08:20:24.226Z,44.50
2018-05-14T08:22:53.184Z,43.70
2018-05-14T08:25:21.372Z,43.27
2018-05-14T08:27:50.474Z,43.10
2018-05-14T08:30:19.594Z,47.53
2018-05-14T08:32:48.583Z,47.23
2018-05-14T08:35:17.929Z,55.07
2018-05-14T08:37:46.211Z,50.10
2018-05-14T08:40:14.400Z,54.03
2018-05-14T08:42:42.616Z,55.87
2018-05-14T08:45:11.830Z,63.60
2018-05-14T08:47:40.834Z,60.83
2018-05-14T08:50:09.048Z,54.10
2018-05-14T08:52:37.428Z,55.97
2018-05-14T08:55:05.907Z,54.83
2018-05-14T08:57:34.512Z,53.00
2018-05-14T09:00:02.842Z,53.37
2018-05-14T09:02:31.855Z,57.73
2018-05-14T09:05:00.070Z,51.80
2018-05-14T09:07:29.111Z,44.33
2018-05-14T09:09:57.471Z,48.37
2018-05-14T09:12:26.454Z,54.33
2018-05-14T09:14:54.811Z,49.27
2018-05-14T09:17:23.106Z,56.27
2018-05-14T09:19:52.137Z,50.73
2018-05-14T09:22:20.551Z,53.47
2018-05-14T09:24:48.817Z,47.43
2018-05-14T09:27:17.142Z,45.47
2018-05-14T09:29:45.477Z,43.80
2018-05-14T09:32:13.768Z,44.20
2018-05-14T09:34:42.037Z,43.63
2018-05-14T09:37:10.380Z,37.10
2018-05-14T09:39:40.084Z,39.73
2018-05-14T09:42:12.813Z,42.53
2018-05-14T09:44:51.394Z,41.10
2018-05-14T09:47:20.927Z,40.53
2018-05-14T09:49:49.958Z,44.20
2018-05-14T09:52:19.285Z,39.50
2018-05-14T09:54:47.364Z,45.87
2018-05-14T09:57:15.766Z,43.33
2018-05-14T09:59:43.906Z,45.13
2018-05-14T10:02:12.896Z,41.40
2018-05-14T10:04:41.294Z,40.13
2018-05-14T10:07:11.605Z,49.07
2018-05-14T10:09:40.016Z,44.27
2018-05-14T10:12:08.318Z,40.13
2018-05-14T10:14:36.689Z,44.13
2018-05-14T10:17:04.974Z,43.20
2018-05-14T10:19:33.247Z,47.87
2018-05-14T10:22:01.544Z,48.33
2018-05-14T10:24:29.790Z,45.37
2018-05-14T10:26:58.090Z,50.10
2018-05-14T10:29:26.297Z,46.97
2018-05-14T10:31:54.643Z,48.10
2018-05-14T10:34:23.034Z,48.53
2018-05-14T10:36:51.343Z,49.60
2018-05-14T10:39:20.380Z,50.03
2018-05-14T10:41:48.653Z,44.07
2018-05-14T10:44:16.961Z,45.53
2018-05-14T10:46:45.200Z,45.53
2018-05-14T10:49:13.428Z,45.23
2018-05-14T10:51:41.769Z,47.87
2018-05-14T10:54:10.097Z,43.57
2018-05-14T10:56:38.555Z,45.10
2018-05-14T10:59:07.748Z,47.60
2018-05-14T11:01:35.955Z,45.67
2018-05-14T11:04:04.197Z,49.00
2018-05-14T11:06:32.901Z,50.47
2018-05-14T11:09:01.100Z,50.60
2018-05-14T11:11:29.444Z,47.60
2018-05-14T11:13:59.237Z,48.50
2018-05-14T11:16:27.531Z,48.83
2018-05-14T11:18:55.722Z,48.87
2018-05-14T11:21:23.953Z,47.67
2018-05-14T11:23:52.905Z,45.93
2018-05-14T11:26:21.124Z,48.50
2018-05-14T11:28:50.126Z,45.20
2018-05-14T11:31:19.636Z,48.37
2018-05-14T11:33:47.938Z,45.67
2018-05-14T11:36:16.271Z,45.47
2018-05-14T11:38:45.263Z,51.87
2018-05-14T11:41:15.368Z,50.67
2018-05-14T11:43:43.774Z,52.83
2018-05-14T11:46:12.099Z,53.13
2018-05-14T11:48:40.291Z,57.30
2018-05-14T11:51:08.542Z,55.63
2018-05-14T11:53:36.773Z,55.13
2018-05-14T11:56:05.965Z,56.87
2018-05-14T11:58:35.124Z,60.40
2018-05-14T12:01:04.998Z,56.27
2018-05-14T12:03:33.980Z,57.50
2018-05-14T12:06:03.055Z,50.20
2018-05-14T12:08:31.278Z,58.90
2018-05-14T12:10:59.478Z,56.40
2018-05-14T12:13:27.692Z,55.53
2018-05-14T12:15:56.440Z,52.63
2018-05-14T12:18:24.642Z,52.37
2018-05-14T12:20:52.914Z,55.90
2018-05-14T12:23:21.129Z,59.13
2018-05-14T12:25:49.371Z,60.87
2018-05-14T12:28:17.618Z,62.50
2018-05-14T12:30:45.821Z,63.23
2018-05-14T12:33:14.013Z,60.90
2018-05-14T12:35:42.443Z,63.67
2018-05-14T12:38:10.741Z,62.20
2018-05-14T12:40:38.980Z,63.10
2018-05-14T12:43:07.929Z,63.90
2018-05-14T12:45:36.190Z,68.13
2018-05-14T12:48:04.339Z,65.67
2018-05-14T12:50:32.563Z,62.63
2018-05-14T12:53:00.921Z,64.50
2018-05-14T12:55:29.120Z,68.13
2018-05-14T12:57:57.450Z,74.97
2018-05-14T13:00:25.692Z,68.07
2018-05-14T13:02:54.784Z,69.27
2018-05-14T13:05:23.950Z,66.73
2018-05-14T13:07:52.333Z,62.50
2018-05-14T13:10:21.342Z,67.67
2018-05-14T13:12:49.601Z,64.40
2018-05-14T13:15:17.822Z,68.83
2018-05-14T13:17:47.191Z,64.33
2018-05-14T13:20:16.221Z,71.57
2018-05-14T13:22:45.222Z,73.10
2018-05-14T13:25:14.252Z,66.53
2018-05-14T13:27:42.507Z,72.47
2018-05-14T13:30:11.485Z,68.83
2018-05-14T13:32:40.475Z,68.13
2018-05-14T13:35:09.494Z,64.03
2018-05-14T13:37:38.680Z,66.67
2018-05-14T13:40:07.620Z,69.50
2018-05-14T13:42:35.906Z,66.23
2018-05-14T13:45:04.180Z,65.07
2018-05-14T13:47:32.385Z,67.40
2018-05-14T13:50:00.760Z,62.57
2018-05-14T13:52:28.952Z,62.53
2018-05-14T13:54:57.996Z,63.87
2018-05-14T13:57:26.378Z,62.30
2018-05-14T13:59:55.955Z,67.67
2018-05-14T14:02:24.228Z,55.60
2018-05-14T14:04:52.488Z,60.53
2018-05-14T14:07:21.495Z,52.80
2018-05-14T14:09:49.733Z,61.33
2018-05-14T14:12:18.756Z,65.57
2018-05-14T14:14:57.239Z,62.57
2018-05-14T14:33:15.501Z,63.17
2018-05-14T14:35:43.758Z,62.37
2018-05-14T14:38:12.108Z,63.67
2018-05-14T14:40:41.250Z,54.17
2018-05-14T14:43:09.653Z,56.80
2018-05-14T14:45:38.994Z,60.17
2018-05-14T14:48:07.403Z,55.90
2018-05-14T14:50:35.668Z,61.10
2018-05-14T14:53:03.912Z,60.07
2018-05-14T14:55:48.740Z,61.43
2018-05-14T14:58:17.035Z,60.10
2018-05-14T15:00:45.894Z,51.57
2018-05-14T15:03:14.908Z,57.40
2018-05-14T15:05:43.284Z,58.90
2018-05-14T15:08:11.551Z,55.07
2018-05-14T15:10:40.791Z,55.67
2018-05-14T15:13:10.591Z,58.07
2018-05-14T15:15:38.816Z,59.40
2018-05-14T15:18:07.805Z,59.63
2018-05-14T15:20:36.860Z,58.77
2018-05-14T15:23:05.115Z,57.80
2018-05-14T15:25:33.381Z,55.47
2018-05-14T15:28:01.802Z,57.40
2018-05-14T15:30:30.179Z,64.43
2018-05-14T15:32:58.445Z,59.90
2018-05-14T15:35:26.655Z,55.47
2018-05-14T15:37:55.721Z,56.10
2018-05-14T15:40:23.987Z,56.10
2018-05-14T15:42:52.240Z,52.70
2018-05-14T15:48:21.250Z,55.57
2018-05-14T15:50:50.219Z,55.77
2018-05-14T15:53:19.264Z,56.83
2018-05-14T15:55:49.014Z,56.07
2018-05-14T15:58:17.246Z,56.33
2018-05-14T16:00:45.572Z,57.70
2018-05-14T16:03:13.876Z,58.07
2018-05-14T16:05:42.296Z,63.37
2018-05-14T16:08:10.647Z,58.13
2018-05-14T16:10:38.854Z,60.00
2018-05-14T16:13:07.087Z,59.10
2018-05-14T16:15:36.097Z,74.77
2018-05-14T16:18:05.260Z,68.70
2018-05-14T16:20:34.259Z,64.43
2018-05-14T16:23:03.254Z,70.23
2018-05-14T16:25:32.237Z,62.97
2018-05-14T16:28:00.494Z,64.83
2018-05-14T16:30:28.725Z,64.43
2018-05-14T16:32:57.684Z,67.47
2018-05-14T16:35:25.947Z,61.53
2018-05-14T16:37:54.327Z,64.40
2018-05-14T16:40:22.736Z,66.07
2018-05-14T16:42:51.639Z,69.50
2018-05-14T16:45:19.869Z,77.70
2018-05-14T16:47:48.092Z,72.80
2018-05-14T16:50:17.337Z,73.13
2018-05-14T16:52:46.295Z,65.90
2018-05-14T16:55:15.331Z,75.20
2018-05-14T16:57:43.612Z,80.13
2018-05-14T17:00:12.688Z,75.93
2018-05-14T17:02:41.661Z,89.27
2018-05-14T17:05:10.632Z,85.73
2018-05-14T17:07:38.841Z,77.70
2018-05-14T17:10:07.074Z,80.33
2018-05-14T17:12:36.086Z,71.30
2018-05-14T17:15:04.983Z,82.03
2018-05-14T17:17:33.211Z,71.23
2018-05-14T17:20:01.426Z,73.97
2018-05-14T17:22:30.495Z,76.47
2018-05-14T17:24:58.805Z,74.83
2018-05-14T17:27:26.993Z,70.63
2018-05-14T17:29:55.946Z,80.57
2018-05-14T17:32:24.165Z,73.40
2018-05-14T17:34:53.151Z,81.60
2018-05-14T17:37:21.482Z,78.50
2018-05-14T17:39:50.475Z,84.03
2018-05-14T17:42:18.676Z,86.40
2018-05-14T17:44:46.995Z,87.47
2018-05-14T17:47:16.029Z,73.17
2018-05-14T17:49:44.259Z,74.70
2018-05-14T17:52:17.151Z,83.23
2018-05-14T17:54:45.643Z,79.40
2018-05-14T17:57:13.892Z,85.90
2018-05-14T17:59:42.192Z,80.77
2018-05-14T18:02:11.214Z,87.07
2018-05-14T18:04:39.635Z,79.13
2018-05-14T18:07:07.893Z,75.13
2018-05-14T18:09:36.880Z,85.03
2018-05-14T18:12:05.087Z,82.40
2018-05-14T18:14:33.282Z,80.87
2018-05-14T18:17:02.465Z,77.63
2018-05-14T18:19:37.085Z,74.80
2018-05-14T18:22:10.990Z,83.20
2018-05-14T18:24:39.317Z,83.93
2018-05-14T18:27:09.323Z,79.33
2018-05-14T18:29:38.981Z,86.50
2018-05-14T18:32:07.561Z,81.80
2018-05-14T18:34:39.582Z,76.63
2018-05-14T18:37:07.878Z,79.30
2018-05-14T18:39:36.116Z,78.00
2018-05-14T18:42:04.384Z,72.33
2018-05-14T18:44:33.375Z,79.60
2018-05-14T18:47:01.624Z,77.57
2018-05-14T18:49:29.943Z,85.70
2018-05-14T18:51:58.332Z,81.70
2018-05-14T18:54:26.558Z,82.77
2018-05-14T18:56:54.784Z,75.93
2018-05-14T18:59:23.014Z,79.70
2018-05-14T19:01:51.398Z,75.77
2018-05-14T19:04:19.659Z,78.93
2018-05-14T19:06:47.912Z,87.00
2018-05-14T19:09:16.362Z,78.20
2018-05-14T19:11:50.355Z,80.30
2018-05-14T19:14:18.567Z,78.03
2018-05-14T19:16:52.665Z,81.37
2018-05-14T19:19:21.475Z,71.00
2018-05-14T19:21:50.536Z,76.73
2018-05-14T19:24:18.778Z,72.20
2018-05-14T19:26:47.903Z,81.10
2018-05-14T19:29:22.480Z,79.30
2018-05-14T19:31:51.126Z,81.93
2018-05-14T19:34:25.153Z,81.03
2018-05-14T19:36:53.378Z,74.97
2018-05-14T19:39:27.618Z,78.80
2018-05-14T19:41:56.398Z,73.37
2018-05-14T19:44:24.772Z,75.37
2018-05-14T19:46:53.921Z,76.47
2018-05-14T19:49:22.181Z,87.80
2018-05-14T19:51:51.387Z,81.20
2018-05-14T19:54:20.405Z,71.93
2018-05-14T19:56:49.424Z,77.33
2018-05-14T19:59:17.818Z,78.80
2018-05-14T20:01:46.090Z,80.13
2018-05-14T20:04:14.420Z,75.13
2018-05-14T20:06:42.681Z,82.83
2018-05-14T20:09:10.918Z,78.80
2018-05-14T20:11:40.721Z,83.90
2018-05-14T20:14:08.972Z,74.13
2018-05-14T20:16:38.014Z,81.23
2018-05-14T20:19:06.484Z,77.50
2018-05-14T20:21:35.471Z,73.60
2018-05-14T20:24:07.907Z,80.50
2018-05-14T20:26:38.527Z,76.77
2018-05-14T20:29:08.276Z,73.10
2018-05-14T20:31:36.923Z,79.73
2018-05-14T20:34:05.208Z,77.57
2018-05-14T20:36:33.580Z,88.50
2018-05-14T20:39:01.778Z,76.57
2018-05-14T20:41:30.200Z,77.03
2018-05-14T20:43:59.246Z,74.67
2018-05-14T20:46:27.502Z,82.30
2018-05-14T20:48:55.752Z,72.97
2018-05-14T20:51:24.016Z,82.00
2018-05-14T20:53:53.036Z,82.40
2018-05-14T20:56:21.450Z,75.40
2018-05-14T20:58:49.692Z,77.97
2018-05-14T21:01:17.936Z,82.63
2018-05-14T21:03:46.181Z,81.70
2018-05-14T21:06:14.424Z,78.93
2018-05-14T21:08:43.373Z,80.57
2018-05-14T21:11:11.605Z,81.30
2018-05-14T21:13:39.842Z,75.47
2018-05-14T21:16:08.806Z,82.87
2018-05-14T21:18:37.163Z,74.13
2018-05-14T21:21:05.380Z,79.33
2018-05-14T21:23:33.594Z,75.47
2018-05-14T21:26:01.917Z,72.57
2018-05-14T21:28:30.172Z,79.13
2018-05-14T21:30:58.459Z,78.00
2018-05-14T21:33:26.646Z,79.47
2018-05-14T21:35:55.751Z,67.77
2018-05-14T21:38:23.968Z,76.67
2018-05-14T21:40:52.314Z,68.93
2018-05-14T21:43:21.343Z,61.07
2018-05-14T21:45:51.231Z,65.87
2018-05-14T21:48:19.597Z,68.53
2018-05-14T21:50:48.309Z,62.50
2018-05-14T21:53:16.559Z,57.33
2018-05-14T21:55:45.014Z,61.77
2018-05-14T21:58:13.253Z,63.70
2018-05-14T22:00:41.689Z,64.83
2018-05-14T22:03:10.020Z,63.50
2018-05-14T22:05:51.255Z,60.03
2018-05-14T22:08:19.637Z,62.87
2018-05-14T22:10:47.843Z,57.83
2018-05-14T22:13:16.093Z,63.20
2018-05-14T22:15:44.343Z,62.43
2018-05-14T22:18:12.665Z,59.10
2018-05-14T22:20:41.105Z,69.07
2018-05-14T22:23:09.382Z,70.03
2018-05-14T22:25:37.661Z,74.47
2018-05-14T22:28:06.566Z,62.77
2018-05-14T22:30:34.791Z,63.10
2018-05-14T22:33:03.064Z,70.33
2018-05-14T22:35:31.401Z,67.83
2018-05-14T22:37:59.706Z,68.33
2018-05-14T22:40:27.988Z,62.30
2018-05-14T22:42:56.544Z,61.53
2018-05-14T22:45:25.790Z,64.90
2018-05-14T22:47:54.833Z,63.40
2018-05-14T22:50:23.071Z,58.90
2018-05-14T22:52:52.209Z,65.47
2018-05-14T22:55:20.592Z,68.73
2018-05-14T22:57:48.900Z,63.77
2018-05-14T23:00:26.731Z,61.87
2018-05-14T23:02:54.974Z,60.50
2018-05-14T23:05:23.259Z,65.30
2018-05-14T23:07:52.125Z,60.70
2018-05-14T23:10:20.508Z,60.57
2018-05-14T23:12:50.089Z,67.43
2018-05-14T23:15:18.316Z,65.33
2018-05-14T23:17:46.574Z,66.40
2018-05-14T23:20:14.804Z,64.83
2018-05-14T23:22:43.884Z,65.80
2018-05-14T23:25:15.691Z,63.23
2018-05-14T23:27:43.888Z,69.20
2018-05-14T23:30:12.171Z,77.50
2018-05-14T23:32:40.637Z,76.80
2018-05-14T23:35:09.038Z,75.27
2018-05-14T23:37:38.156Z,72.83
2018-05-14T23:40:06.376Z,72.10
2018-05-14T23:42:35.687Z,67.80
2018-05-14T23:45:03.949Z,80.33
2018-05-14T23:47:32.341Z,74.83
2018-05-14T23:50:00.729Z,67.00
2018-05-14T23:52:28.966Z,69.20
2018-05-14T23:54:58.065Z,67.30
2018-05-14T23:57:26.281Z,62.50
2018-05-14T23:59:54.501Z,68.67
